Terminal Aerodrome Forecast
Issued by NWS Pocatello, ID

Home | Current Version | Previous Version | Text Only | Print | Product List | Glossary On
Versions: 1 2 3 4 5 6 7 8 9 10 11 12 13
464
FTUS45 KPIH 271916 AAA
TAFPIH
TAF AMD
KPIH 271916Z 2719/2818 25015G22KT P6SM SCT150
     FM280200 19008KT P6SM SCT150=

USA.gov is the U.S. government's official web portal to all federal, state and local government web resources and services.